sensor_id;sensor_type;location;lat;lon;timestamp;P1;durP1;ratioP1;P2;durP2;ratioP2
3815;SDS011;1923;48.154;11.536;2023-09-12T00:00:51;11.20;;;7.57;;
3815;SDS011;1923;48.154;11.536;2023-09-12T00:03:19;13.03;;;7.80;;
3815;SDS011;1923;48.154;11.536;2023-09-12T00:05:52;13.00;;;8.33;;
3815;SDS011;1923;48.154;11.536;2023-09-12T00:08:21;13.30;;;8.43;;
3815;SDS011;1923;48.154;11.536;2023-09-12T00:10:58;14.40;;;8.00;;
3815;SDS011;1923;48.154;11.536;2023-09-12T00:13:27;13.40;;;8.37;;
3815;SDS011;1923;48.154;11.536;2023-09-12T00:15:55;12.20;;;7.73;;
3815;SDS011;1923;48.154;11.536;2023-09-12T00:18:24;12.93;;;7.43;;
3815;SDS011;1923;48.154;11.536;2023-09-12T00:20:53;12.90;;;8.20;;
3815;SDS011;1923;48.154;11.536;2023-09-12T00:23:22;11.67;;;7.60;;
3815;SDS011;1923;48.154;11.536;2023-09-12T00:25:50;15.20;;;7.93;;
3815;SDS011;1923;48.154;11.536;2023-09-12T00:28:18;13.33;;;8.37;;
3815;SDS011;1923;48.154;11.536;2023-09-12T00:30:47;11.53;;;9.17;;
3815;SDS011;1923;48.154;11.536;2023-09-12T00:33:15;13.60;;;9.00;;
3815;SDS011;1923;48.154;11.536;2023-09-12T00:35:44;17.50;;;9.00;;
3815;SDS011;1923;48.154;11.536;2023-09-12T00:38:12;12.07;;;8.40;;
3815;SDS011;1923;48.154;11.536;2023-09-12T00:40:41;13.33;;;7.77;;
3815;SDS011;1923;48.154;11.536;2023-09-12T00:43:09;15.53;;;8.20;;
3815;SDS011;1923;48.154;11.536;2023-09-12T00:45:37;14.17;;;8.30;;
3815;SDS011;1923;48.154;11.536;2023-09-12T00:48:06;10.23;;;7.70;;
3815;SDS011;1923;48.154;11.536;2023-09-12T00:50:35;14.50;;;8.27;;
3815;SDS011;1923;48.154;11.536;2023-09-12T00:53:04;14.60;;;9.13;;
3815;SDS011;1923;48.154;11.536;2023-09-12T00:55:33;13.13;;;8.83;;
3815;SDS011;1923;48.154;11.536;2023-09-12T00:58:05;10.30;;;7.97;;
3815;SDS011;1923;48.154;11.536;2023-09-12T01:00:33;13.70;;;8.00;;
3815;SDS011;1923;48.154;11.536;2023-09-12T01:03:02;13.63;;;8.50;;
3815;SDS011;1923;48.154;11.536;2023-09-12T01:05:31;12.93;;;8.10;;
3815;SDS011;1923;48.154;11.536;2023-09-12T01:07:59;13.63;;;8.30;;
3815;SDS011;1923;48.154;11.536;2023-09-12T01:10:28;13.40;;;7.97;;
3815;SDS011;1923;48.154;11.536;2023-09-12T01:12:59;10.37;;;8.03;;
3815;SDS011;1923;48.154;11.536;2023-09-12T01:15:28;14.83;;;8.00;;
3815;SDS011;1923;48.154;11.536;2023-09-12T01:17:56;12.97;;;8.33;;
3815;SDS011;1923;48.154;11.536;2023-09-12T01:20:26;11.57;;;8.10;;
3815;SDS011;1923;48.154;11.536;2023-09-12T01:23:04;12.30;;;8.00;;
3815;SDS011;1923;48.154;11.536;2023-09-12T01:26:01;12.50;;;8.40;;
3815;SDS011;1923;48.154;11.536;2023-09-12T01:28:45;11.70;;;8.03;;
3815;SDS011;1923;48.154;11.536;2023-09-12T01:31:17;12.37;;;8.17;;
3815;SDS011;1923;48.154;11.536;2023-09-12T01:33:46;12.70;;;7.73;;
3815;SDS011;1923;48.154;11.536;2023-09-12T01:36:14;11.23;;;8.10;;
3815;SDS011;1923;48.154;11.536;2023-09-12T01:38:42;12.60;;;8.40;;
3815;SDS011;1923;48.154;11.536;2023-09-12T01:41:10;11.03;;;7.47;;
3815;SDS011;1923;48.154;11.536;2023-09-12T01:43:39;13.30;;;8.73;;
3815;SDS011;1923;48.154;11.536;2023-09-12T01:46:12;12.87;;;8.73;;
3815;SDS011;1923;48.154;11.536;2023-09-12T01:48:42;14.77;;;9.00;;
3815;SDS011;1923;48.154;11.536;2023-09-12T01:51:11;13.73;;;8.37;;
3815;SDS011;1923;48.154;11.536;2023-09-12T01:53:41;11.20;;;7.50;;
3815;SDS011;1923;48.154;11.536;2023-09-12T01:56:12;12.50;;;8.70;;
3815;SDS011;1923;48.154;11.536;2023-09-12T01:58:40;13.83;;;8.00;;
3815;SDS011;1923;48.154;11.536;2023-09-12T02:01:09;13.67;;;8.30;;
3815;SDS011;1923;48.154;11.536;2023-09-12T02:03:39;15.27;;;8.10;;
3815;SDS011;1923;48.154;11.536;2023-09-12T02:06:07;11.00;;;7.77;;
3815;SDS011;1923;48.154;11.536;2023-09-12T02:08:35;13.97;;;8.43;;
3815;SDS011;1923;48.154;11.536;2023-09-12T02:11:03;12.40;;;7.77;;
3815;SDS011;1923;48.154;11.536;2023-09-12T02:13:31;13.30;;;8.23;;
3815;SDS011;1923;48.154;11.536;2023-09-12T02:15:59;15.90;;;8.20;;
3815;SDS011;1923;48.154;11.536;2023-09-12T02:18:29;13.07;;;7.90;;
3815;SDS011;1923;48.154;11.536;2023-09-12T02:20:59;11.20;;;7.67;;
3815;SDS011;1923;48.154;11.536;2023-09-12T02:23:28;12.30;;;8.37;;
3815;SDS011;1923;48.154;11.536;2023-09-12T02:25:56;11.70;;;7.60;;
3815;SDS011;1923;48.154;11.536;2023-09-12T02:28:24;11.43;;;8.70;;
3815;SDS011;1923;48.154;11.536;2023-09-12T02:30:52;10.30;;;7.50;;
3815;SDS011;1923;48.154;11.536;2023-09-12T02:33:20;15.43;;;9.17;;
3815;SDS011;1923;48.154;11.536;2023-09-12T02:35:48;14.00;;;8.60;;
3815;SDS011;1923;48.154;11.536;2023-09-12T02:38:18;10.47;;;7.90;;
3815;SDS011;1923;48.154;11.536;2023-09-12T02:40:46;12.20;;;8.20;;
3815;SDS011;1923;48.154;11.536;2023-09-12T02:43:14;10.50;;;8.10;;
3815;SDS011;1923;48.154;11.536;2023-09-12T02:45:42;17.23;;;8.50;;
3815;SDS011;1923;48.154;11.536;2023-09-12T02:48:10;13.50;;;7.70;;
3815;SDS011;1923;48.154;11.536;2023-09-12T02:50:38;12.17;;;8.30;;
3815;SDS011;1923;48.154;11.536;2023-09-12T02:53:06;12.23;;;8.40;;
3815;SDS011;1923;48.154;11.536;2023-09-12T02:55:38;11.30;;;8.50;;
3815;SDS011;1923;48.154;11.536;2023-09-12T02:58:07;13.30;;;8.20;;
3815;SDS011;1923;48.154;11.536;2023-09-12T03:00:37;15.30;;;8.30;;
3815;SDS011;1923;48.154;11.536;2023-09-12T03:03:07;13.40;;;8.70;;
3815;SDS011;1923;48.154;11.536;2023-09-12T03:05:36;14.33;;;8.83;;
3815;SDS011;1923;48.154;11.536;2023-09-12T03:08:04;11.73;;;8.00;;
3815;SDS011;1923;48.154;11.536;2023-09-12T03:10:32;12.90;;;7.90;;
3815;SDS011;1923;48.154;11.536;2023-09-12T03:13:01;10.17;;;7.03;;
3815;SDS011;1923;48.154;11.536;2023-09-12T03:15:29;13.10;;;8.00;;
3815;SDS011;1923;48.154;11.536;2023-09-12T03:17:57;9.70;;;7.27;;
3815;SDS011;1923;48.154;11.536;2023-09-12T03:20:25;12.97;;;8.60;;
3815;SDS011;1923;48.154;11.536;2023-09-12T03:22:53;11.00;;;7.47;;
3815;SDS011;1923;48.154;11.536;2023-09-12T03:25:21;11.73;;;7.90;;
3815;SDS011;1923;48.154;11.536;2023-09-12T03:27:49;12.30;;;8.07;;
3815;SDS011;1923;48.154;11.536;2023-09-12T03:30:19;11.73;;;8.50;;
3815;SDS011;1923;48.154;11.536;2023-09-12T03:32:48;11.73;;;7.43;;
3815;SDS011;1923;48.154;11.536;2023-09-12T03:35:16;10.80;;;7.27;;
3815;SDS011;1923;48.154;11.536;2023-09-12T03:37:44;12.70;;;9.00;;
3815;SDS011;1923;48.154;11.536;2023-09-12T03:40:12;12.70;;;7.70;;
3815;SDS011;1923;48.154;11.536;2023-09-12T03:42:40;10.50;;;7.37;;
3815;SDS011;1923;48.154;11.536;2023-09-12T03:45:08;12.43;;;6.90;;
3815;SDS011;1923;48.154;11.536;2023-09-12T03:47:39;10.27;;;7.47;;
3815;SDS011;1923;48.154;11.536;2023-09-12T03:50:07;11.20;;;7.13;;
3815;SDS011;1923;48.154;11.536;2023-09-12T03:52:36;14.63;;;7.70;;
3815;SDS011;1923;48.154;11.536;2023-09-12T03:55:04;11.50;;;7.73;;
3815;SDS011;1923;48.154;11.536;2023-09-12T03:57:32;15.80;;;9.30;;
3815;SDS011;1923;48.154;11.536;2023-09-12T04:00:00;12.30;;;8.47;;
3815;SDS011;1923;48.154;11.536;2023-09-12T04:02:32;12.40;;;8.60;;
3815;SDS011;1923;48.154;11.536;2023-09-12T04:05:02;13.13;;;8.63;;
3815;SDS011;1923;48.154;11.536;2023-09-12T04:07:30;12.83;;;8.33;;
3815;SDS011;1923;48.154;11.536;2023-09-12T04:09:58;12.73;;;7.87;;
3815;SDS011;1923;48.154;11.536;2023-09-12T04:12:26;13.97;;;8.43;;
3815;SDS011;1923;48.154;11.536;2023-09-12T04:14:54;12.27;;;8.17;;
3815;SDS011;1923;48.154;11.536;2023-09-12T04:17:22;12.40;;;7.27;;
3815;SDS011;1923;48.154;11.536;2023-09-12T04:19:51;13.03;;;8.70;;
3815;SDS011;1923;48.154;11.536;2023-09-12T04:22:20;13.80;;;8.40;;
3815;SDS011;1923;48.154;11.536;2023-09-12T04:24:49;11.40;;;8.90;;
3815;SDS011;1923;48.154;11.536;2023-09-12T04:27:17;13.27;;;8.07;;
3815;SDS011;1923;48.154;11.536;2023-09-12T04:29:45;13.70;;;8.93;;
3815;SDS011;1923;48.154;11.536;2023-09-12T04:32:14;12.93;;;9.03;;
3815;SDS011;1923;48.154;11.536;2023-09-12T04:34:43;10.80;;;7.70;;
3815;SDS011;1923;48.154;11.536;2023-09-12T04:37:11;14.90;;;9.33;;
3815;SDS011;1923;48.154;11.536;2023-09-12T04:39:41;12.20;;;8.03;;
3815;SDS011;1923;48.154;11.536;2023-09-12T04:42:09;14.47;;;8.80;;
3815;SDS011;1923;48.154;11.536;2023-09-12T04:44:39;11.93;;;8.50;;
3815;SDS011;1923;48.154;11.536;2023-09-12T04:47:08;14.63;;;8.73;;
3815;SDS011;1923;48.154;11.536;2023-09-12T04:49:37;11.67;;;8.30;;
3815;SDS011;1923;48.154;11.536;2023-09-12T04:52:05;13.03;;;8.17;;
3815;SDS011;1923;48.154;11.536;2023-09-12T04:54:33;22.60;;;13.30;;
3815;SDS011;1923;48.154;11.536;2023-09-12T04:57:04;42.03;;;18.20;;
3815;SDS011;1923;48.154;11.536;2023-09-12T04:59:32;22.13;;;13.17;;
3815;SDS011;1923;48.154;11.536;2023-09-12T05:02:00;15.67;;;10.13;;
3815;SDS011;1923;48.154;11.536;2023-09-12T05:04:29;15.43;;;9.70;;
3815;SDS011;1923;48.154;11.536;2023-09-12T05:06:57;17.70;;;10.50;;
3815;SDS011;1923;48.154;11.536;2023-09-12T05:09:25;14.50;;;8.77;;
3815;SDS011;1923;48.154;11.536;2023-09-12T05:11:53;18.67;;;10.37;;
3815;SDS011;1923;48.154;11.536;2023-09-12T05:14:22;17.30;;;9.10;;
3815;SDS011;1923;48.154;11.536;2023-09-12T05:16:50;18.37;;;10.17;;
3815;SDS011;1923;48.154;11.536;2023-09-12T05:19:19;21.60;;;10.77;;
3815;SDS011;1923;48.154;11.536;2023-09-12T05:21:47;15.93;;;9.47;;
3815;SDS011;1923;48.154;11.536;2023-09-12T05:24:15;16.93;;;9.47;;
3815;SDS011;1923;48.154;11.536;2023-09-12T05:26:43;15.63;;;9.00;;
3815;SDS011;1923;48.154;11.536;2023-09-12T05:29:11;15.93;;;9.63;;
3815;SDS011;1923;48.154;11.536;2023-09-12T05:31:41;16.40;;;9.50;;
3815;SDS011;1923;48.154;11.536;2023-09-12T05:34:09;15.93;;;8.77;;
3815;SDS011;1923;48.154;11.536;2023-09-12T05:36:37;16.63;;;9.20;;
3815;SDS011;1923;48.154;11.536;2023-09-12T05:39:05;12.87;;;8.43;;
3815;SDS011;1923;48.154;11.536;2023-09-12T05:41:33;12.47;;;8.20;;
3815;SDS011;1923;48.154;11.536;2023-09-12T05:44:01;12.93;;;8.50;;
3815;SDS011;1923;48.154;11.536;2023-09-12T05:46:30;13.60;;;8.20;;
3815;SDS011;1923;48.154;11.536;2023-09-12T05:48:59;15.33;;;9.23;;
3815;SDS011;1923;48.154;11.536;2023-09-12T05:51:28;14.47;;;9.23;;
3815;SDS011;1923;48.154;11.536;2023-09-12T05:53:56;11.83;;;8.43;;
3815;SDS011;1923;48.154;11.536;2023-09-12T05:56:24;15.23;;;9.47;;
3815;SDS011;1923;48.154;11.536;2023-09-12T05:58:52;13.40;;;8.90;;
3815;SDS011;1923;48.154;11.536;2023-09-12T06:01:20;12.97;;;8.70;;
3815;SDS011;1923;48.154;11.536;2023-09-12T06:03:48;12.00;;;8.70;;
3815;SDS011;1923;48.154;11.536;2023-09-12T06:06:18;13.63;;;9.20;;
3815;SDS011;1923;48.154;11.536;2023-09-12T06:08:46;17.30;;;8.90;;
3815;SDS011;1923;48.154;11.536;2023-09-12T06:11:14;14.87;;;8.57;;
3815;SDS011;1923;48.154;11.536;2023-09-12T06:13:42;14.70;;;8.40;;
3815;SDS011;1923;48.154;11.536;2023-09-12T06:16:10;10.40;;;8.00;;
3815;SDS011;1923;48.154;11.536;2023-09-12T06:18:38;12.67;;;9.10;;
3815;SDS011;1923;48.154;11.536;2023-09-12T06:21:07;12.83;;;8.10;;
3815;SDS011;1923;48.154;11.536;2023-09-12T06:23:36;11.97;;;8.43;;
3815;SDS011;1923;48.154;11.536;2023-09-12T06:26:05;13.40;;;7.97;;
3815;SDS011;1923;48.154;11.536;2023-09-12T06:28:33;10.23;;;7.60;;
3815;SDS011;1923;48.154;11.536;2023-09-12T06:31:01;15.80;;;7.17;;
3815;SDS011;1923;48.154;11.536;2023-09-12T06:33:29;10.30;;;7.60;;
3815;SDS011;1923;48.154;11.536;2023-09-12T06:35:57;10.73;;;7.20;;
3815;SDS011;1923;48.154;11.536;2023-09-12T06:38:26;13.40;;;8.20;;
3815;SDS011;1923;48.154;11.536;2023-09-12T06:40:55;11.10;;;8.30;;
3815;SDS011;1923;48.154;11.536;2023-09-12T06:43:24;16.70;;;11.27;;
3815;SDS011;1923;48.154;11.536;2023-09-12T06:45:52;12.93;;;8.37;;
3815;SDS011;1923;48.154;11.536;2023-09-12T06:48:21;16.47;;;9.53;;
3815;SDS011;1923;48.154;11.536;2023-09-12T06:50:49;12.20;;;9.03;;
3815;SDS011;1923;48.154;11.536;2023-09-12T06:53:19;14.53;;;8.60;;
3815;SDS011;1923;48.154;11.536;2023-09-12T06:55:47;10.37;;;7.40;;
3815;SDS011;1923;48.154;11.536;2023-09-12T06:58:17;18.63;;;8.70;;
3815;SDS011;1923;48.154;11.536;2023-09-12T07:00:45;11.30;;;7.47;;
3815;SDS011;1923;48.154;11.536;2023-09-12T07:03:13;12.50;;;7.93;;
3815;SDS011;1923;48.154;11.536;2023-09-12T07:05:42;11.57;;;7.70;;
3815;SDS011;1923;48.154;11.536;2023-09-12T07:08:10;12.03;;;7.87;;
3815;SDS011;1923;48.154;11.536;2023-09-12T07:10:43;12.93;;;8.70;;
3815;SDS011;1923;48.154;11.536;2023-09-12T07:13:12;10.53;;;7.03;;
3815;SDS011;1923;48.154;11.536;2023-09-12T07:15:41;10.10;;;7.07;;
3815;SDS011;1923;48.154;11.536;2023-09-12T07:18:10;11.53;;;7.47;;
3815;SDS011;1923;48.154;11.536;2023-09-12T07:20:38;9.40;;;6.93;;
3815;SDS011;1923;48.154;11.536;2023-09-12T07:23:06;11.43;;;8.17;;
3815;SDS011;1923;48.154;11.536;2023-09-12T07:25:36;15.27;;;7.90;;
3815;SDS011;1923;48.154;11.536;2023-09-12T07:28:06;12.57;;;7.47;;
3815;SDS011;1923;48.154;11.536;2023-09-12T07:30:34;15.97;;;6.30;;
3815;SDS011;1923;48.154;11.536;2023-09-12T07:33:05;12.60;;;7.47;;
3815;SDS011;1923;48.154;11.536;2023-09-12T07:35:34;10.37;;;7.40;;
3815;SDS011;1923;48.154;11.536;2023-09-12T07:38:02;10.90;;;6.73;;
3815;SDS011;1923;48.154;11.536;2023-09-12T07:40:30;13.50;;;8.07;;
3815;SDS011;1923;48.154;11.536;2023-09-12T07:43:02;10.03;;;7.07;;
3815;SDS011;1923;48.154;11.536;2023-09-12T07:45:31;10.80;;;7.13;;
3815;SDS011;1923;48.154;11.536;2023-09-12T07:48:05;13.00;;;7.40;;
3815;SDS011;1923;48.154;11.536;2023-09-12T07:50:34;9.20;;;6.83;;
3815;SDS011;1923;48.154;11.536;2023-09-12T07:53:04;10.97;;;7.13;;
3815;SDS011;1923;48.154;11.536;2023-09-12T07:56:00;11.37;;;6.23;;
3815;SDS011;1923;48.154;11.536;2023-09-12T07:58:28;10.63;;;7.50;;
3815;SDS011;1923;48.154;11.536;2023-09-12T08:00:56;10.47;;;7.10;;
3815;SDS011;1923;48.154;11.536;2023-09-12T08:03:26;12.53;;;7.77;;
3815;SDS011;1923;48.154;11.536;2023-09-12T08:05:55;11.70;;;6.53;;
3815;SDS011;1923;48.154;11.536;2023-09-12T08:08:24;10.43;;;6.83;;
3815;SDS011;1923;48.154;11.536;2023-09-12T08:10:52;9.63;;;6.80;;
3815;SDS011;1923;48.154;11.536;2023-09-12T08:13:20;9.43;;;7.10;;
3815;SDS011;1923;48.154;11.536;2023-09-12T08:15:49;8.97;;;6.30;;
3815;SDS011;1923;48.154;11.536;2023-09-12T08:18:17;9.57;;;6.00;;
3815;SDS011;1923;48.154;11.536;2023-09-12T08:20:46;9.10;;;6.30;;
3815;SDS011;1923;48.154;11.536;2023-09-12T08:23:14;10.43;;;6.53;;
3815;SDS011;1923;48.154;11.536;2023-09-12T08:25:42;11.17;;;6.53;;
3815;SDS011;1923;48.154;11.536;2023-09-12T08:28:11;10.97;;;6.77;;
3815;SDS011;1923;48.154;11.536;2023-09-12T08:30:39;9.40;;;7.00;;
3815;SDS011;1923;48.154;11.536;2023-09-12T08:33:07;15.20;;;6.90;;
3815;SDS011;1923;48.154;11.536;2023-09-12T08:35:35;8.93;;;6.67;;
3815;SDS011;1923;48.154;11.536;2023-09-12T08:38:04;8.80;;;6.70;;
3815;SDS011;1923;48.154;11.536;2023-09-12T08:40:32;9.50;;;6.80;;
3815;SDS011;1923;48.154;11.536;2023-09-12T08:43:01;9.03;;;6.20;;
3815;SDS011;1923;48.154;11.536;2023-09-12T08:45:30;7.50;;;5.53;;
3815;SDS011;1923;48.154;11.536;2023-09-12T08:47:59;9.00;;;6.23;;
3815;SDS011;1923;48.154;11.536;2023-09-12T08:50:29;10.50;;;6.50;;
3815;SDS011;1923;48.154;11.536;2023-09-12T08:53:01;10.27;;;6.60;;
3815;SDS011;1923;48.154;11.536;2023-09-12T08:55:35;9.40;;;6.57;;
3815;SDS011;1923;48.154;11.536;2023-09-12T08:58:04;7.90;;;5.83;;
3815;SDS011;1923;48.154;11.536;2023-09-12T09:00:33;8.93;;;5.90;;
3815;SDS011;1923;48.154;11.536;2023-09-12T09:03:02;8.63;;;5.30;;
3815;SDS011;1923;48.154;11.536;2023-09-12T09:05:31;12.80;;;8.00;;
3815;SDS011;1923;48.154;11.536;2023-09-12T09:08:02;9.70;;;6.80;;
3815;SDS011;1923;48.154;11.536;2023-09-12T09:10:31;8.47;;;6.50;;
3815;SDS011;1923;48.154;11.536;2023-09-12T09:13:17;8.60;;;6.70;;
3815;SDS011;1923;48.154;11.536;2023-09-12T09:15:45;9.80;;;6.57;;
3815;SDS011;1923;48.154;11.536;2023-09-12T09:18:17;8.80;;;5.97;;
3815;SDS011;1923;48.154;11.536;2023-09-12T09:20:45;9.20;;;7.07;;
3815;SDS011;1923;48.154;11.536;2023-09-12T09:23:16;8.00;;;5.77;;
3815;SDS011;1923;48.154;11.536;2023-09-12T09:25:45;6.43;;;5.57;;
3815;SDS011;1923;48.154;11.536;2023-09-12T09:28:21;8.03;;;5.60;;
3815;SDS011;1923;48.154;11.536;2023-09-12T09:30:50;7.10;;;6.20;;
3815;SDS011;1923;48.154;11.536;2023-09-12T09:33:21;9.37;;;5.83;;
3815;SDS011;1923;48.154;11.536;2023-09-12T09:35:51;8.03;;;5.73;;
3815;SDS011;1923;48.154;11.536;2023-09-12T09:38:30;21.23;;;14.87;;
3815;SDS011;1923;48.154;11.536;2023-09-12T09:40:58;8.60;;;6.67;;
3815;SDS011;1923;48.154;11.536;2023-09-12T09:43:28;9.50;;;6.90;;
3815;SDS011;1923;48.154;11.536;2023-09-12T09:45:59;8.60;;;6.43;;
3815;SDS011;1923;48.154;11.536;2023-09-12T09:48:27;10.27;;;7.73;;
3815;SDS011;1923;48.154;11.536;2023-09-12T09:51:01;7.70;;;5.70;;
3815;SDS011;1923;48.154;11.536;2023-09-12T09:53:30;7.43;;;5.80;;
3815;SDS011;1923;48.154;11.536;2023-09-12T09:56:09;8.30;;;5.90;;
3815;SDS011;1923;48.154;11.536;2023-09-12T09:58:43;9.00;;;6.20;;
3815;SDS011;1923;48.154;11.536;2023-09-12T10:01:16;7.27;;;5.90;;
3815;SDS011;1923;48.154;11.536;2023-09-12T10:03:46;6.80;;;5.50;;
3815;SDS011;1923;48.154;11.536;2023-09-12T10:06:15;8.67;;;6.07;;
3815;SDS011;1923;48.154;11.536;2023-09-12T10:08:44;7.40;;;5.73;;
3815;SDS011;1923;48.154;11.536;2023-09-12T10:11:17;8.70;;;5.80;;
3815;SDS011;1923;48.154;11.536;2023-09-12T10:13:51;8.13;;;5.60;;
3815;SDS011;1923;48.154;11.536;2023-09-12T10:16:23;7.27;;;5.27;;
3815;SDS011;1923;48.154;11.536;2023-09-12T10:18:55;8.17;;;5.17;;
3815;SDS011;1923;48.154;11.536;2023-09-12T10:21:28;7.10;;;4.90;;
3815;SDS011;1923;48.154;11.536;2023-09-12T10:23:58;8.97;;;5.70;;
3815;SDS011;1923;48.154;11.536;2023-09-12T10:26:27;10.13;;;5.33;;
3815;SDS011;1923;48.154;11.536;2023-09-12T10:28:57;7.73;;;5.20;;
3815;SDS011;1923;48.154;11.536;2023-09-12T10:31:26;7.83;;;5.37;;
3815;SDS011;1923;48.154;11.536;2023-09-12T10:33:55;7.30;;;4.80;;
3815;SDS011;1923;48.154;11.536;2023-09-12T10:36:25;6.73;;;5.13;;
3815;SDS011;1923;48.154;11.536;2023-09-12T10:38:55;5.77;;;5.00;;
3815;SDS011;1923;48.154;11.536;2023-09-12T10:41:26;5.47;;;4.97;;
3815;SDS011;1923;48.154;11.536;2023-09-12T10:43:56;9.03;;;5.47;;
3815;SDS011;1923;48.154;11.536;2023-09-12T10:46:26;6.63;;;4.87;;
3815;SDS011;1923;48.154;11.536;2023-09-12T10:48:55;8.43;;;4.73;;
3815;SDS011;1923;48.154;11.536;2023-09-12T10:51:23;4.67;;;4.20;;
3815;SDS011;1923;48.154;11.536;2023-09-12T10:53:51;5.27;;;4.23;;
3815;SDS011;1923;48.154;11.536;2023-09-12T10:56:20;6.63;;;5.20;;
3815;SDS011;1923;48.154;11.536;2023-09-12T11:01:51;5.57;;;5.00;;
3815;SDS011;1923;48.154;11.536;2023-09-12T11:04:32;4.90;;;4.40;;
3815;SDS011;1923;48.154;11.536;2023-09-12T11:07:01;5.50;;;4.80;;
3815;SDS011;1923;48.154;11.536;2023-09-12T11:09:58;5.47;;;4.53;;
3815;SDS011;1923;48.154;11.536;2023-09-12T11:12:45;5.93;;;5.07;;
3815;SDS011;1923;48.154;11.536;2023-09-12T11:15:16;6.37;;;5.10;;
3815;SDS011;1923;48.154;11.536;2023-09-12T11:17:45;7.70;;;5.03;;
3815;SDS011;1923;48.154;11.536;2023-09-12T11:20:15;6.47;;;5.00;;
3815;SDS011;1923;48.154;11.536;2023-09-12T11:22:44;5.13;;;4.63;;
3815;SDS011;1923;48.154;11.536;2023-09-12T11:25:20;11.83;;;5.53;;
3815;SDS011;1923;48.154;11.536;2023-09-12T11:28:02;11.13;;;6.63;;
3815;SDS011;1923;48.154;11.536;2023-09-12T11:30:33;8.70;;;5.43;;
3815;SDS011;1923;48.154;11.536;2023-09-12T11:33:03;7.80;;;5.13;;
3815;SDS011;1923;48.154;11.536;2023-09-12T11:35:36;5.97;;;5.17;;
3815;SDS011;1923;48.154;11.536;2023-09-12T11:38:10;5.70;;;5.10;;
3815;SDS011;1923;48.154;11.536;2023-09-12T11:40:42;6.60;;;4.83;;
3815;SDS011;1923;48.154;11.536;2023-09-12T11:43:21;9.33;;;6.07;;
3815;SDS011;1923;48.154;11.536;2023-09-12T11:45:52;6.93;;;5.30;;
3815;SDS011;1923;48.154;11.536;2023-09-12T11:48:22;7.93;;;5.47;;
3815;SDS011;1923;48.154;11.536;2023-09-12T11:50:51;7.57;;;5.70;;
3815;SDS011;1923;48.154;11.536;2023-09-12T11:53:21;8.53;;;5.27;;
3815;SDS011;1923;48.154;11.536;2023-09-12T11:55:53;7.30;;;5.20;;
3815;SDS011;1923;48.154;11.536;2023-09-12T11:58:22;5.63;;;4.50;;
3815;SDS011;1923;48.154;11.536;2023-09-12T12:00:53;9.03;;;5.30;;
3815;SDS011;1923;48.154;11.536;2023-09-12T12:03:22;5.57;;;4.27;;
3815;SDS011;1923;48.154;11.536;2023-09-12T12:05:51;8.97;;;5.70;;
3815;SDS011;1923;48.154;11.536;2023-09-12T12:08:21;8.23;;;5.20;;
3815;SDS011;1923;48.154;11.536;2023-09-12T12:10:52;7.10;;;5.50;;
3815;SDS011;1923;48.154;11.536;2023-09-12T12:13:21;7.63;;;5.80;;
3815;SDS011;1923;48.154;11.536;2023-09-12T12:15:50;8.43;;;5.53;;
3815;SDS011;1923;48.154;11.536;2023-09-12T12:18:19;6.93;;;4.97;;
3815;SDS011;1923;48.154;11.536;2023-09-12T12:20:48;8.03;;;5.70;;
3815;SDS011;1923;48.154;11.536;2023-09-12T12:23:16;5.40;;;4.57;;
3815;SDS011;1923;48.154;11.536;2023-09-12T12:25:44;8.17;;;5.23;;
3815;SDS011;1923;48.154;11.536;2023-09-12T12:28:12;6.30;;;4.70;;
3815;SDS011;1923;48.154;11.536;2023-09-12T12:30:40;5.80;;;4.73;;
3815;SDS011;1923;48.154;11.536;2023-09-12T12:33:09;7.30;;;5.10;;
3815;SDS011;1923;48.154;11.536;2023-09-12T12:36:02;8.90;;;5.00;;
3815;SDS011;1923;48.154;11.536;2023-09-12T12:38:33;8.10;;;5.57;;
3815;SDS011;1923;48.154;11.536;2023-09-12T12:41:22;7.37;;;5.50;;
3815;SDS011;1923;48.154;11.536;2023-09-12T12:43:58;6.47;;;4.73;;
3815;SDS011;1923;48.154;11.536;2023-09-12T12:46:30;8.03;;;4.60;;
3815;SDS011;1923;48.154;11.536;2023-09-12T12:48:58;7.57;;;5.40;;
3815;SDS011;1923;48.154;11.536;2023-09-12T12:51:28;8.03;;;5.87;;
3815;SDS011;1923;48.154;11.536;2023-09-12T12:54:03;5.50;;;4.90;;
3815;SDS011;1923;48.154;11.536;2023-09-12T12:56:32;5.60;;;4.47;;
3815;SDS011;1923;48.154;11.536;2023-09-12T12:59:01;6.43;;;4.83;;
3815;SDS011;1923;48.154;11.536;2023-09-12T13:01:33;7.03;;;5.50;;
3815;SDS011;1923;48.154;11.536;2023-09-12T13:04:01;5.73;;;4.47;;
3815;SDS011;1923;48.154;11.536;2023-09-12T13:06:33;5.93;;;4.80;;
3815;SDS011;1923;48.154;11.536;2023-09-12T13:09:03;6.70;;;5.20;;
3815;SDS011;1923;48.154;11.536;2023-09-12T13:11:33;6.57;;;5.17;;
3815;SDS011;1923;48.154;11.536;2023-09-12T13:14:01;6.40;;;5.10;;
3815;SDS011;1923;48.154;11.536;2023-09-12T13:16:30;6.87;;;5.27;;
3815;SDS011;1923;48.154;11.536;2023-09-12T13:18:58;7.70;;;5.50;;
3815;SDS011;1923;48.154;11.536;2023-09-12T13:21:26;7.07;;;5.10;;
3815;SDS011;1923;48.154;11.536;2023-09-12T13:23:56;6.17;;;4.83;;
3815;SDS011;1923;48.154;11.536;2023-09-12T13:26:28;6.97;;;5.10;;
3815;SDS011;1923;48.154;11.536;2023-09-12T13:28:57;6.83;;;5.20;;
3815;SDS011;1923;48.154;11.536;2023-09-12T13:31:25;8.43;;;5.50;;
3815;SDS011;1923;48.154;11.536;2023-09-12T13:33:53;8.00;;;5.70;;
3815;SDS011;1923;48.154;11.536;2023-09-12T13:36:22;7.57;;;5.03;;
3815;SDS011;1923;48.154;11.536;2023-09-12T13:38:50;8.13;;;5.77;;
3815;SDS011;1923;48.154;11.536;2023-09-12T13:41:20;7.87;;;6.13;;
3815;SDS011;1923;48.154;11.536;2023-09-12T13:43:48;7.40;;;5.00;;
3815;SDS011;1923;48.154;11.536;2023-09-12T13:46:16;6.47;;;4.60;;
3815;SDS011;1923;48.154;11.536;2023-09-12T13:48:45;8.17;;;5.07;;
3815;SDS011;1923;48.154;11.536;2023-09-12T13:51:15;8.03;;;5.13;;
3815;SDS011;1923;48.154;11.536;2023-09-12T13:53:43;6.60;;;5.50;;
3815;SDS011;1923;48.154;11.536;2023-09-12T13:56:12;6.33;;;5.10;;
3815;SDS011;1923;48.154;11.536;2023-09-12T13:58:41;7.67;;;5.50;;
3815;SDS011;1923;48.154;11.536;2023-09-12T14:01:16;7.40;;;5.33;;
3815;SDS011;1923;48.154;11.536;2023-09-12T14:04:00;9.60;;;5.20;;
3815;SDS011;1923;48.154;11.536;2023-09-12T14:06:29;6.73;;;5.13;;
3815;SDS011;1923;48.154;11.536;2023-09-12T14:08:58;6.53;;;4.80;;
3815;SDS011;1923;48.154;11.536;2023-09-12T14:11:26;9.63;;;5.80;;
3815;SDS011;1923;48.154;11.536;2023-09-12T14:14:02;9.80;;;5.53;;
3815;SDS011;1923;48.154;11.536;2023-09-12T14:16:34;9.30;;;5.97;;
3815;SDS011;1923;48.154;11.536;2023-09-12T14:19:02;8.13;;;5.00;;
3815;SDS011;1923;48.154;11.536;2023-09-12T14:21:32;6.57;;;4.70;;
3815;SDS011;1923;48.154;11.536;2023-09-12T14:24:01;8.70;;;5.53;;
3815;SDS011;1923;48.154;11.536;2023-09-12T14:26:31;8.67;;;5.20;;
3815;SDS011;1923;48.154;11.536;2023-09-12T14:28:59;7.47;;;5.67;;
3815;SDS011;1923;48.154;11.536;2023-09-12T14:31:29;7.80;;;4.93;;
3815;SDS011;1923;48.154;11.536;2023-09-12T14:33:58;12.27;;;6.13;;
3815;SDS011;1923;48.154;11.536;2023-09-12T14:36:26;6.73;;;4.80;;
3815;SDS011;1923;48.154;11.536;2023-09-12T14:38:54;8.23;;;5.90;;
3815;SDS011;1923;48.154;11.536;2023-09-12T14:41:22;9.20;;;5.83;;
3815;SDS011;1923;48.154;11.536;2023-09-12T14:43:50;8.30;;;5.70;;
3815;SDS011;1923;48.154;11.536;2023-09-12T14:46:18;7.60;;;5.80;;
3815;SDS011;1923;48.154;11.536;2023-09-12T14:48:48;7.87;;;5.60;;
3815;SDS011;1923;48.154;11.536;2023-09-12T14:51:27;7.50;;;4.63;;
3815;SDS011;1923;48.154;11.536;2023-09-12T14:53:59;8.20;;;5.63;;
3815;SDS011;1923;48.154;11.536;2023-09-12T14:56:27;8.20;;;6.20;;
3815;SDS011;1923;48.154;11.536;2023-09-12T14:58:56;7.90;;;5.40;;
3815;SDS011;1923;48.154;11.536;2023-09-12T15:01:24;11.17;;;6.73;;
3815;SDS011;1923;48.154;11.536;2023-09-12T15:03:54;8.30;;;5.90;;
3815;SDS011;1923;48.154;11.536;2023-09-12T15:06:28;9.70;;;5.87;;
3815;SDS011;1923;48.154;11.536;2023-09-12T15:08:59;8.47;;;6.00;;
3815;SDS011;1923;48.154;11.536;2023-09-12T15:11:28;6.93;;;4.83;;